sensor_id;sensor_type;location;lat;lon;timestamp;P1;durP1;ratioP1;P2;durP2;ratioP2
84082;SDS011;74174;52.224;6.878;2023-12-07T00:00:30;25.60;;;10.85;;
84082;SDS011;74174;52.224;6.878;2023-12-07T00:02:56;23.17;;;10.13;;
84082;SDS011;74174;52.224;6.878;2023-12-07T00:05:22;22.67;;;10.32;;
84082;SDS011;74174;52.224;6.878;2023-12-07T00:07:49;19.30;;;9.95;;
84082;SDS011;74174;52.224;6.878;2023-12-07T00:10:14;20.95;;;10.30;;
84082;SDS011;74174;52.224;6.878;2023-12-07T00:12:40;22.00;;;9.77;;
84082;SDS011;74174;52.224;6.878;2023-12-07T00:15:05;21.15;;;10.30;;
84082;SDS011;74174;52.224;6.878;2023-12-07T00:17:32;21.55;;;9.50;;
84082;SDS011;74174;52.224;6.878;2023-12-07T00:19:58;21.90;;;9.88;;
84082;SDS011;74174;52.224;6.878;2023-12-07T00:22:24;20.83;;;9.45;;
84082;SDS011;74174;52.224;6.878;2023-12-07T00:24:50;19.83;;;10.07;;
84082;SDS011;74174;52.224;6.878;2023-12-07T00:27:16;20.40;;;8.65;;
84082;SDS011;74174;52.224;6.878;2023-12-07T00:29:41;25.48;;;9.15;;
84082;SDS011;74174;52.224;6.878;2023-12-07T00:32:07;17.98;;;8.82;;
84082;SDS011;74174;52.224;6.878;2023-12-07T00:34:32;18.83;;;8.68;;
84082;SDS011;74174;52.224;6.878;2023-12-07T00:36:57;20.15;;;9.05;;
84082;SDS011;74174;52.224;6.878;2023-12-07T00:39:23;20.33;;;9.35;;
84082;SDS011;74174;52.224;6.878;2023-12-07T00:41:48;19.92;;;9.05;;
84082;SDS011;74174;52.224;6.878;2023-12-07T00:44:14;22.23;;;9.30;;
84082;SDS011;74174;52.224;6.878;2023-12-07T00:46:40;18.90;;;8.77;;
84082;SDS011;74174;52.224;6.878;2023-12-07T00:49:05;20.73;;;9.93;;
84082;SDS011;74174;52.224;6.878;2023-12-07T00:51:32;23.38;;;9.60;;
84082;SDS011;74174;52.224;6.878;2023-12-07T00:53:57;22.13;;;9.48;;
84082;SDS011;74174;52.224;6.878;2023-12-07T00:56:23;23.30;;;10.60;;
84082;SDS011;74174;52.224;6.878;2023-12-07T00:58:49;23.50;;;10.73;;
84082;SDS011;74174;52.224;6.878;2023-12-07T01:01:14;21.50;;;10.00;;
84082;SDS011;74174;52.224;6.878;2023-12-07T01:03:41;25.77;;;11.32;;
84082;SDS011;74174;52.224;6.878;2023-12-07T01:06:07;22.95;;;9.55;;
84082;SDS011;74174;52.224;6.878;2023-12-07T01:08:32;23.33;;;10.15;;
84082;SDS011;74174;52.224;6.878;2023-12-07T01:10:58;22.63;;;10.27;;
84082;SDS011;74174;52.224;6.878;2023-12-07T01:13:23;21.27;;;8.98;;
84082;SDS011;74174;52.224;6.878;2023-12-07T01:15:50;19.58;;;9.43;;
84082;SDS011;74174;52.224;6.878;2023-12-07T01:18:16;21.15;;;9.93;;
84082;SDS011;74174;52.224;6.878;2023-12-07T01:20:41;22.92;;;11.23;;
84082;SDS011;74174;52.224;6.878;2023-12-07T01:23:07;22.25;;;10.05;;
84082;SDS011;74174;52.224;6.878;2023-12-07T01:25:33;22.23;;;11.35;;
84082;SDS011;74174;52.224;6.878;2023-12-07T01:27:59;21.50;;;9.93;;
84082;SDS011;74174;52.224;6.878;2023-12-07T01:30:25;23.70;;;10.07;;
84082;SDS011;74174;52.224;6.878;2023-12-07T01:32:50;23.63;;;11.23;;
84082;SDS011;74174;52.224;6.878;2023-12-07T01:35:16;22.35;;;10.68;;
84082;SDS011;74174;52.224;6.878;2023-12-07T01:37:41;23.75;;;10.80;;
84082;SDS011;74174;52.224;6.878;2023-12-07T01:40:07;19.83;;;9.50;;
84082;SDS011;74174;52.224;6.878;2023-12-07T01:42:38;22.17;;;10.43;;
84082;SDS011;74174;52.224;6.878;2023-12-07T01:45:04;20.80;;;10.02;;
84082;SDS011;74174;52.224;6.878;2023-12-07T01:47:31;24.65;;;11.35;;
84082;SDS011;74174;52.224;6.878;2023-12-07T01:49:57;26.52;;;10.38;;
84082;SDS011;74174;52.224;6.878;2023-12-07T01:52:23;25.08;;;10.57;;
84082;SDS011;74174;52.224;6.878;2023-12-07T01:54:51;22.23;;;9.55;;
84082;SDS011;74174;52.224;6.878;2023-12-07T01:57:18;27.13;;;11.13;;
84082;SDS011;74174;52.224;6.878;2023-12-07T01:59:44;21.80;;;11.27;;
84082;SDS011;74174;52.224;6.878;2023-12-07T02:02:11;27.60;;;10.25;;
84082;SDS011;74174;52.224;6.878;2023-12-07T02:04:36;26.75;;;10.68;;
84082;SDS011;74174;52.224;6.878;2023-12-07T02:07:02;22.80;;;10.50;;
84082;SDS011;74174;52.224;6.878;2023-12-07T02:09:29;23.63;;;10.60;;
84082;SDS011;74174;52.224;6.878;2023-12-07T02:11:55;21.92;;;10.18;;
84082;SDS011;74174;52.224;6.878;2023-12-07T02:14:21;25.38;;;10.77;;
84082;SDS011;74174;52.224;6.878;2023-12-07T02:16:51;21.42;;;9.85;;
84082;SDS011;74174;52.224;6.878;2023-12-07T02:22:23;20.45;;;10.45;;
84082;SDS011;74174;52.224;6.878;2023-12-07T02:27:34;23.42;;;11.18;;
84082;SDS011;74174;52.224;6.878;2023-12-07T02:30:10;21.80;;;10.30;;
84082;SDS011;74174;52.224;6.878;2023-12-07T02:32:37;20.85;;;10.00;;
84082;SDS011;74174;52.224;6.878;2023-12-07T02:35:03;23.10;;;10.32;;
84082;SDS011;74174;52.224;6.878;2023-12-07T02:37:33;22.38;;;9.98;;
84082;SDS011;74174;52.224;6.878;2023-12-07T02:40:03;23.30;;;10.80;;
84082;SDS011;74174;52.224;6.878;2023-12-07T02:42:30;23.90;;;10.35;;
84082;SDS011;74174;52.224;6.878;2023-12-07T02:44:59;22.45;;;10.13;;
84082;SDS011;74174;52.224;6.878;2023-12-07T02:47:24;22.08;;;10.55;;
84082;SDS011;74174;52.224;6.878;2023-12-07T02:49:50;21.55;;;10.13;;
84082;SDS011;74174;52.224;6.878;2023-12-07T02:52:15;23.58;;;10.05;;
84082;SDS011;74174;52.224;6.878;2023-12-07T02:54:41;20.75;;;9.90;;
84082;SDS011;74174;52.224;6.878;2023-12-07T02:57:07;24.50;;;10.73;;
84082;SDS011;74174;52.224;6.878;2023-12-07T02:59:33;24.05;;;10.52;;
84082;SDS011;74174;52.224;6.878;2023-12-07T03:01:58;20.67;;;9.50;;
84082;SDS011;74174;52.224;6.878;2023-12-07T03:04:24;23.48;;;10.52;;
84082;SDS011;74174;52.224;6.878;2023-12-07T03:06:49;25.48;;;10.68;;
84082;SDS011;74174;52.224;6.878;2023-12-07T03:09:16;22.55;;;9.82;;
84082;SDS011;74174;52.224;6.878;2023-12-07T03:11:41;24.60;;;11.43;;
84082;SDS011;74174;52.224;6.878;2023-12-07T03:14:07;20.95;;;10.10;;
84082;SDS011;74174;52.224;6.878;2023-12-07T03:16:32;20.60;;;9.70;;
84082;SDS011;74174;52.224;6.878;2023-12-07T03:19:00;21.95;;;9.57;;
84082;SDS011;74174;52.224;6.878;2023-12-07T03:21:26;20.20;;;9.82;;
84082;SDS011;74174;52.224;6.878;2023-12-07T03:23:52;21.30;;;9.20;;
84082;SDS011;74174;52.224;6.878;2023-12-07T03:26:17;20.17;;;9.80;;
84082;SDS011;74174;52.224;6.878;2023-12-07T03:28:43;24.63;;;9.38;;
84082;SDS011;74174;52.224;6.878;2023-12-07T03:31:08;23.67;;;10.57;;
84082;SDS011;74174;52.224;6.878;2023-12-07T03:33:34;26.08;;;10.27;;
84082;SDS011;74174;52.224;6.878;2023-12-07T03:35:59;21.33;;;10.63;;
84082;SDS011;74174;52.224;6.878;2023-12-07T03:38:26;22.83;;;11.10;;
84082;SDS011;74174;52.224;6.878;2023-12-07T03:40:51;22.77;;;10.00;;
84082;SDS011;74174;52.224;6.878;2023-12-07T03:43:18;23.00;;;10.25;;
84082;SDS011;74174;52.224;6.878;2023-12-07T03:45:45;23.98;;;10.98;;
84082;SDS011;74174;52.224;6.878;2023-12-07T03:48:11;22.65;;;10.93;;
84082;SDS011;74174;52.224;6.878;2023-12-07T03:50:37;21.63;;;10.88;;
84082;SDS011;74174;52.224;6.878;2023-12-07T03:53:02;22.50;;;9.98;;
84082;SDS011;74174;52.224;6.878;2023-12-07T03:55:28;20.90;;;10.18;;
84082;SDS011;74174;52.224;6.878;2023-12-07T03:57:53;25.83;;;10.23;;
84082;SDS011;74174;52.224;6.878;2023-12-07T04:00:19;22.67;;;10.05;;
84082;SDS011;74174;52.224;6.878;2023-12-07T04:02:44;23.25;;;10.75;;
84082;SDS011;74174;52.224;6.878;2023-12-07T04:05:09;24.55;;;9.68;;
84082;SDS011;74174;52.224;6.878;2023-12-07T04:07:37;21.90;;;9.55;;
84082;SDS011;74174;52.224;6.878;2023-12-07T04:10:03;25.55;;;9.93;;
84082;SDS011;74174;52.224;6.878;2023-12-07T04:12:31;29.13;;;10.20;;
84082;SDS011;74174;52.224;6.878;2023-12-07T04:14:56;23.30;;;9.60;;
84082;SDS011;74174;52.224;6.878;2023-12-07T04:17:22;28.35;;;10.77;;
84082;SDS011;74174;52.224;6.878;2023-12-07T04:19:47;33.90;;;11.32;;
84082;SDS011;74174;52.224;6.878;2023-12-07T04:22:13;33.20;;;11.73;;
84082;SDS011;74174;52.224;6.878;2023-12-07T04:24:38;28.17;;;11.10;;
84082;SDS011;74174;52.224;6.878;2023-12-07T04:27:05;46.05;;;10.80;;
84082;SDS011;74174;52.224;6.878;2023-12-07T04:29:32;34.67;;;10.30;;
84082;SDS011;74174;52.224;6.878;2023-12-07T04:31:57;26.30;;;10.95;;
84082;SDS011;74174;52.224;6.878;2023-12-07T04:34:22;30.50;;;11.30;;
84082;SDS011;74174;52.224;6.878;2023-12-07T04:36:49;33.20;;;9.88;;
84082;SDS011;74174;52.224;6.878;2023-12-07T04:39:20;38.83;;;9.57;;
84082;SDS011;74174;52.224;6.878;2023-12-07T04:41:46;47.85;;;8.75;;
84082;SDS011;74174;52.224;6.878;2023-12-07T04:44:12;33.17;;;9.93;;
84082;SDS011;74174;52.224;6.878;2023-12-07T04:46:38;31.17;;;9.23;;
84082;SDS011;74174;52.224;6.878;2023-12-07T04:49:04;28.98;;;8.80;;
84082;SDS011;74174;52.224;6.878;2023-12-07T04:51:32;44.08;;;8.88;;
84082;SDS011;74174;52.224;6.878;2023-12-07T04:53:59;43.75;;;10.40;;
84082;SDS011;74174;52.224;6.878;2023-12-07T04:56:24;39.15;;;9.30;;
84082;SDS011;74174;52.224;6.878;2023-12-07T04:58:50;39.10;;;8.30;;
84082;SDS011;74174;52.224;6.878;2023-12-07T05:01:15;44.55;;;10.23;;
84082;SDS011;74174;52.224;6.878;2023-12-07T05:03:41;21.00;;;8.85;;
84082;SDS011;74174;52.224;6.878;2023-12-07T05:06:06;37.13;;;9.85;;
84082;SDS011;74174;52.224;6.878;2023-12-07T05:08:32;21.48;;;8.88;;
84082;SDS011;74174;52.224;6.878;2023-12-07T05:10:58;26.02;;;8.80;;
84082;SDS011;74174;52.224;6.878;2023-12-07T05:13:23;29.48;;;10.52;;
84082;SDS011;74174;52.224;6.878;2023-12-07T05:15:49;22.02;;;9.00;;
84082;SDS011;74174;52.224;6.878;2023-12-07T05:18:14;22.20;;;10.35;;
84082;SDS011;74174;52.224;6.878;2023-12-07T05:20:39;23.60;;;9.88;;
84082;SDS011;74174;52.224;6.878;2023-12-07T05:23:05;24.35;;;10.07;;
84082;SDS011;74174;52.224;6.878;2023-12-07T05:25:31;23.10;;;10.70;;
84082;SDS011;74174;52.224;6.878;2023-12-07T05:27:57;19.80;;;9.20;;
84082;SDS011;74174;52.224;6.878;2023-12-07T05:30:23;21.80;;;9.00;;
84082;SDS011;74174;52.224;6.878;2023-12-07T05:32:48;22.08;;;9.18;;
84082;SDS011;74174;52.224;6.878;2023-12-07T05:35:14;28.02;;;9.45;;
84082;SDS011;74174;52.224;6.878;2023-12-07T05:37:39;26.90;;;10.13;;
84082;SDS011;74174;52.224;6.878;2023-12-07T05:40:05;40.65;;;9.98;;
84082;SDS011;74174;52.224;6.878;2023-12-07T05:42:31;35.15;;;10.23;;
84082;SDS011;74174;52.224;6.878;2023-12-07T05:44:57;34.08;;;10.00;;
84082;SDS011;74174;52.224;6.878;2023-12-07T05:47:23;35.22;;;10.18;;
84082;SDS011;74174;52.224;6.878;2023-12-07T05:49:48;44.08;;;10.52;;
84082;SDS011;74174;52.224;6.878;2023-12-07T05:52:14;29.13;;;11.13;;
84082;SDS011;74174;52.224;6.878;2023-12-07T05:54:39;38.40;;;10.20;;
84082;SDS011;74174;52.224;6.878;2023-12-07T05:57:07;36.63;;;10.57;;
84082;SDS011;74174;52.224;6.878;2023-12-07T05:59:36;54.70;;;10.82;;
84082;SDS011;74174;52.224;6.878;2023-12-07T06:02:03;55.33;;;11.05;;
84082;SDS011;74174;52.224;6.878;2023-12-07T06:04:29;34.63;;;11.35;;
84082;SDS011;74174;52.224;6.878;2023-12-07T06:06:55;42.53;;;10.88;;
84082;SDS011;74174;52.224;6.878;2023-12-07T06:09:20;45.72;;;9.77;;
84082;SDS011;74174;52.224;6.878;2023-12-07T06:11:45;37.75;;;11.02;;
84082;SDS011;74174;52.224;6.878;2023-12-07T06:14:11;43.88;;;10.23;;
84082;SDS011;74174;52.224;6.878;2023-12-07T06:16:36;39.67;;;11.20;;
84082;SDS011;74174;52.224;6.878;2023-12-07T06:19:03;49.33;;;11.45;;
84082;SDS011;74174;52.224;6.878;2023-12-07T06:21:28;40.67;;;10.82;;
84082;SDS011;74174;52.224;6.878;2023-12-07T06:23:55;39.05;;;11.55;;
84082;SDS011;74174;52.224;6.878;2023-12-07T06:26:21;40.65;;;9.80;;
84082;SDS011;74174;52.224;6.878;2023-12-07T06:28:46;38.78;;;10.05;;
84082;SDS011;74174;52.224;6.878;2023-12-07T06:31:12;40.65;;;10.38;;
84082;SDS011;74174;52.224;6.878;2023-12-07T06:33:40;34.63;;;9.70;;
84082;SDS011;74174;52.224;6.878;2023-12-07T06:36:06;41.65;;;9.98;;
84082;SDS011;74174;52.224;6.878;2023-12-07T06:38:31;39.63;;;10.25;;
84082;SDS011;74174;52.224;6.878;2023-12-07T06:40:57;47.03;;;12.07;;
84082;SDS011;74174;52.224;6.878;2023-12-07T06:43:23;50.53;;;12.00;;
84082;SDS011;74174;52.224;6.878;2023-12-07T06:45:48;44.90;;;11.13;;
84082;SDS011;74174;52.224;6.878;2023-12-07T06:48:13;45.25;;;11.02;;
84082;SDS011;74174;52.224;6.878;2023-12-07T06:50:39;48.97;;;11.48;;
84082;SDS011;74174;52.224;6.878;2023-12-07T06:53:04;46.38;;;12.32;;
84082;SDS011;74174;52.224;6.878;2023-12-07T06:55:30;39.55;;;11.98;;
84082;SDS011;74174;52.224;6.878;2023-12-07T06:57:58;50.88;;;11.85;;
84082;SDS011;74174;52.224;6.878;2023-12-07T07:00:23;38.40;;;13.23;;
84082;SDS011;74174;52.224;6.878;2023-12-07T07:02:49;44.40;;;12.40;;
84082;SDS011;74174;52.224;6.878;2023-12-07T07:05:15;39.58;;;13.10;;
84082;SDS011;74174;52.224;6.878;2023-12-07T07:07:40;32.45;;;12.57;;
84082;SDS011;74174;52.224;6.878;2023-12-07T07:10:06;38.55;;;11.40;;
84082;SDS011;74174;52.224;6.878;2023-12-07T07:12:34;47.72;;;13.52;;
84082;SDS011;74174;52.224;6.878;2023-12-07T07:15:00;35.28;;;11.82;;
84082;SDS011;74174;52.224;6.878;2023-12-07T07:17:26;44.45;;;14.07;;
84082;SDS011;74174;52.224;6.878;2023-12-07T07:19:54;47.13;;;15.23;;
84082;SDS011;74174;52.224;6.878;2023-12-07T07:22:20;36.15;;;14.10;;
84082;SDS011;74174;52.224;6.878;2023-12-07T07:24:45;40.75;;;12.85;;
84082;SDS011;74174;52.224;6.878;2023-12-07T07:27:11;45.30;;;15.25;;
84082;SDS011;74174;52.224;6.878;2023-12-07T07:29:38;39.58;;;14.93;;
84082;SDS011;74174;52.224;6.878;2023-12-07T07:32:03;48.97;;;14.80;;
84082;SDS011;74174;52.224;6.878;2023-12-07T07:34:29;45.88;;;16.42;;
84082;SDS011;74174;52.224;6.878;2023-12-07T07:36:55;55.10;;;14.52;;
84082;SDS011;74174;52.224;6.878;2023-12-07T07:39:20;45.95;;;17.35;;
84082;SDS011;74174;52.224;6.878;2023-12-07T07:41:45;53.03;;;18.25;;
84082;SDS011;74174;52.224;6.878;2023-12-07T07:44:11;57.17;;;16.50;;
84082;SDS011;74174;52.224;6.878;2023-12-07T07:46:37;59.63;;;15.85;;
84082;SDS011;74174;52.224;6.878;2023-12-07T07:49:02;59.63;;;17.42;;
84082;SDS011;74174;52.224;6.878;2023-12-07T07:51:29;67.80;;;17.08;;
84082;SDS011;74174;52.224;6.878;2023-12-07T07:53:56;55.38;;;15.95;;
84082;SDS011;74174;52.224;6.878;2023-12-07T07:56:21;63.63;;;17.70;;
84082;SDS011;74174;52.224;6.878;2023-12-07T07:58:47;67.07;;;16.98;;
84082;SDS011;74174;52.224;6.878;2023-12-07T08:01:14;68.32;;;16.95;;
84082;SDS011;74174;52.224;6.878;2023-12-07T08:03:41;70.40;;;17.98;;
84082;SDS011;74174;52.224;6.878;2023-12-07T08:06:06;71.90;;;18.13;;
84082;SDS011;74174;52.224;6.878;2023-12-07T08:08:32;74.63;;;17.52;;
84082;SDS011;74174;52.224;6.878;2023-12-07T08:10:57;64.18;;;17.38;;
84082;SDS011;74174;52.224;6.878;2023-12-07T08:13:23;62.47;;;17.58;;
84082;SDS011;74174;52.224;6.878;2023-12-07T08:15:48;54.15;;;17.05;;
84082;SDS011;74174;52.224;6.878;2023-12-07T08:18:14;72.65;;;17.40;;
84082;SDS011;74174;52.224;6.878;2023-12-07T08:20:39;75.85;;;18.30;;
84082;SDS011;74174;52.224;6.878;2023-12-07T08:23:05;81.10;;;19.25;;
84082;SDS011;74174;52.224;6.878;2023-12-07T08:25:30;78.22;;;19.58;;
84082;SDS011;74174;52.224;6.878;2023-12-07T08:27:57;86.18;;;19.73;;
84082;SDS011;74174;52.224;6.878;2023-12-07T08:30:22;74.68;;;19.83;;
84082;SDS011;74174;52.224;6.878;2023-12-07T08:32:48;68.03;;;18.98;;
84082;SDS011;74174;52.224;6.878;2023-12-07T08:35:14;69.28;;;19.23;;
84082;SDS011;74174;52.224;6.878;2023-12-07T08:37:40;88.13;;;20.23;;
84082;SDS011;74174;52.224;6.878;2023-12-07T08:40:05;93.88;;;21.58;;
84082;SDS011;74174;52.224;6.878;2023-12-07T08:42:31;81.13;;;19.20;;
84082;SDS011;74174;52.224;6.878;2023-12-07T08:44:57;90.70;;;19.08;;
84082;SDS011;74174;52.224;6.878;2023-12-07T08:47:22;68.80;;;19.20;;
84082;SDS011;74174;52.224;6.878;2023-12-07T08:49:48;72.40;;;21.10;;
84082;SDS011;74174;52.224;6.878;2023-12-07T08:52:14;79.00;;;20.50;;
84082;SDS011;74174;52.224;6.878;2023-12-07T08:54:39;85.72;;;20.20;;
84082;SDS011;74174;52.224;6.878;2023-12-07T08:57:07;82.78;;;21.65;;
84082;SDS011;74174;52.224;6.878;2023-12-07T08:59:32;73.68;;;19.65;;
84082;SDS011;74174;52.224;6.878;2023-12-07T09:01:58;79.50;;;20.40;;
84082;SDS011;74174;52.224;6.878;2023-12-07T09:04:23;83.75;;;21.30;;
84082;SDS011;74174;52.224;6.878;2023-12-07T09:06:49;89.50;;;22.00;;
84082;SDS011;74174;52.224;6.878;2023-12-07T09:09:14;78.47;;;20.35;;
84082;SDS011;74174;52.224;6.878;2023-12-07T09:11:40;95.53;;;21.75;;
84082;SDS011;74174;52.224;6.878;2023-12-07T09:14:05;101.78;;;24.52;;
84082;SDS011;74174;52.224;6.878;2023-12-07T09:16:31;89.88;;;20.48;;
84082;SDS011;74174;52.224;6.878;2023-12-07T09:18:56;82.50;;;20.63;;
84082;SDS011;74174;52.224;6.878;2023-12-07T09:21:23;88.80;;;21.50;;
84082;SDS011;74174;52.224;6.878;2023-12-07T09:23:48;89.75;;;21.88;;
84082;SDS011;74174;52.224;6.878;2023-12-07T09:26:14;88.05;;;21.00;;
84082;SDS011;74174;52.224;6.878;2023-12-07T09:28:39;81.25;;;20.23;;
84082;SDS011;74174;52.224;6.878;2023-12-07T09:31:04;88.72;;;21.70;;
84082;SDS011;74174;52.224;6.878;2023-12-07T09:33:30;103.45;;;23.50;;
84082;SDS011;74174;52.224;6.878;2023-12-07T09:35:55;92.35;;;23.27;;
84082;SDS011;74174;52.224;6.878;2023-12-07T09:38:21;99.47;;;22.73;;
84082;SDS011;74174;52.224;6.878;2023-12-07T09:40:46;99.47;;;24.38;;
84082;SDS011;74174;52.224;6.878;2023-12-07T09:43:17;86.25;;;23.75;;
84082;SDS011;74174;52.224;6.878;2023-12-07T09:45:43;93.57;;;23.83;;
84082;SDS011;74174;52.224;6.878;2023-12-07T09:48:10;91.60;;;22.80;;
84082;SDS011;74174;52.224;6.878;2023-12-07T09:50:35;82.47;;;22.38;;
84082;SDS011;74174;52.224;6.878;2023-12-07T09:53:02;80.97;;;20.83;;
84082;SDS011;74174;52.224;6.878;2023-12-07T09:55:28;87.00;;;22.05;;
84082;SDS011;74174;52.224;6.878;2023-12-07T09:57:55;79.90;;;20.42;;
84082;SDS011;74174;52.224;6.878;2023-12-07T10:00:22;84.78;;;21.08;;
84082;SDS011;74174;52.224;6.878;2023-12-07T10:02:47;75.10;;;23.15;;
84082;SDS011;74174;52.224;6.878;2023-12-07T10:05:14;81.25;;;22.25;;
84082;SDS011;74174;52.224;6.878;2023-12-07T10:07:41;70.50;;;22.00;;
84082;SDS011;74174;52.224;6.878;2023-12-07T10:10:13;74.35;;;21.88;;
84082;SDS011;74174;52.224;6.878;2023-12-07T10:12:51;81.80;;;20.85;;
84082;SDS011;74174;52.224;6.878;2023-12-07T10:15:25;78.47;;;21.58;;
84082;SDS011;74174;52.224;6.878;2023-12-07T10:17:57;71.60;;;21.00;;
84082;SDS011;74174;52.224;6.878;2023-12-07T10:20:27;60.55;;;17.27;;
84082;SDS011;74174;52.224;6.878;2023-12-07T10:25:42;73.78;;;19.83;;
84082;SDS011;74174;52.224;6.878;2023-12-07T10:28:09;79.53;;;22.85;;
84082;SDS011;74174;52.224;6.878;2023-12-07T10:30:37;74.93;;;22.80;;
84082;SDS011;74174;52.224;6.878;2023-12-07T10:33:05;82.25;;;22.30;;
84082;SDS011;74174;52.224;6.878;2023-12-07T10:35:32;78.65;;;24.17;;
84082;SDS011;74174;52.224;6.878;2023-12-07T10:38:03;67.47;;;20.13;;
84082;SDS011;74174;52.224;6.878;2023-12-07T10:40:30;84.53;;;20.67;;
84082;SDS011;74174;52.224;6.878;2023-12-07T10:42:56;70.15;;;20.15;;
84082;SDS011;74174;52.224;6.878;2023-12-07T10:45:26;70.35;;;21.55;;
84082;SDS011;74174;52.224;6.878;2023-12-07T10:47:56;67.25;;;20.13;;
84082;SDS011;74174;52.224;6.878;2023-12-07T10:50:27;64.88;;;16.60;;
84082;SDS011;74174;52.224;6.878;2023-12-07T10:52:59;60.50;;;17.75;;
84082;SDS011;74174;52.224;6.878;2023-12-07T10:56:01;72.65;;;20.08;;
84082;SDS011;74174;52.224;6.878;2023-12-07T10:58:26;66.07;;;19.77;;
84082;SDS011;74174;52.224;6.878;2023-12-07T11:00:53;58.53;;;18.60;;
84082;SDS011;74174;52.224;6.878;2023-12-07T11:03:19;57.58;;;16.95;;
84082;SDS011;74174;52.224;6.878;2023-12-07T11:05:48;56.58;;;17.38;;
84082;SDS011;74174;52.224;6.878;2023-12-07T11:08:25;49.95;;;17.25;;
84082;SDS011;74174;52.224;6.878;2023-12-07T11:11:04;46.58;;;16.15;;
84082;SDS011;74174;52.224;6.878;2023-12-07T11:16:37;50.15;;;17.00;;
84082;SDS011;74174;52.224;6.878;2023-12-07T11:19:23;59.80;;;17.50;;
84082;SDS011;74174;52.224;6.878;2023-12-07T11:22:01;57.03;;;19.75;;
84082;SDS011;74174;52.224;6.878;2023-12-07T11:24:31;53.85;;;18.20;;
84082;SDS011;74174;52.224;6.878;2023-12-07T11:26:57;52.50;;;17.20;;
84082;SDS011;74174;52.224;6.878;2023-12-07T11:29:24;51.83;;;18.40;;
84082;SDS011;74174;52.224;6.878;2023-12-07T11:31:51;52.92;;;18.65;;
84082;SDS011;74174;52.224;6.878;2023-12-07T11:34:34;43.72;;;16.40;;
84082;SDS011;74174;52.224;6.878;2023-12-07T11:37:19;49.30;;;16.13;;
84082;SDS011;74174;52.224;6.878;2023-12-07T11:39:45;48.75;;;17.30;;
84082;SDS011;74174;52.224;6.878;2023-12-07T11:42:18;46.80;;;16.63;;
84082;SDS011;74174;52.224;6.878;2023-12-07T11:44:47;47.42;;;17.15;;
84082;SDS011;74174;52.224;6.878;2023-12-07T11:47:21;43.92;;;16.58;;
84082;SDS011;74174;52.224;6.878;2023-12-07T11:49:46;46.55;;;16.58;;
84082;SDS011;74174;52.224;6.878;2023-12-07T11:52:14;50.75;;;17.45;;
84082;SDS011;74174;52.224;6.878;2023-12-07T11:54:44;47.53;;;16.63;;
84082;SDS011;74174;52.224;6.878;2023-12-07T11:57:11;43.30;;;16.40;;
84082;SDS011;74174;52.224;6.878;2023-12-07T11:59:37;50.28;;;16.27;;
84082;SDS011;74174;52.224;6.878;2023-12-07T12:02:03;46.58;;;15.93;;
84082;SDS011;74174;52.224;6.878;2023-12-07T12:04:30;46.13;;;16.33;;
84082;SDS011;74174;52.224;6.878;2023-12-07T12:06:56;45.42;;;17.80;;
84082;SDS011;74174;52.224;6.878;2023-12-07T12:09:25;47.30;;;16.25;;
84082;SDS011;74174;52.224;6.878;2023-12-07T12:11:51;47.22;;;17.27;;
84082;SDS011;74174;52.224;6.878;2023-12-07T12:14:17;41.30;;;17.55;;
84082;SDS011;74174;52.224;6.878;2023-12-07T12:16:43;47.65;;;17.17;;
84082;SDS011;74174;52.224;6.878;2023-12-07T12:19:09;46.85;;;15.98;;
84082;SDS011;74174;52.224;6.878;2023-12-07T12:21:39;53.25;;;18.25;;
84082;SDS011;74174;52.224;6.878;2023-12-07T12:24:05;46.60;;;16.23;;
84082;SDS011;74174;52.224;6.878;2023-12-07T12:26:34;44.60;;;15.93;;
84082;SDS011;74174;52.224;6.878;2023-12-07T12:29:00;44.13;;;15.25;;
84082;SDS011;74174;52.224;6.878;2023-12-07T12:31:27;46.70;;;16.27;;
84082;SDS011;74174;52.224;6.878;2023-12-07T12:33:53;47.88;;;17.23;;
84082;SDS011;74174;52.224;6.878;2023-12-07T12:36:19;47.47;;;17.33;;
84082;SDS011;74174;52.224;6.878;2023-12-07T12:38:51;40.20;;;16.48;;
84082;SDS011;74174;52.224;6.878;2023-12-07T12:41:20;39.50;;;15.60;;
84082;SDS011;74174;52.224;6.878;2023-12-07T12:43:47;41.63;;;17.27;;
84082;SDS011;74174;52.224;6.878;2023-12-07T12:46:21;39.05;;;16.90;;
84082;SDS011;74174;52.224;6.878;2023-12-07T12:51:38;41.17;;;15.95;;
84082;SDS011;74174;52.224;6.878;2023-12-07T12:54:03;44.30;;;18.80;;
84082;SDS011;74174;52.224;6.878;2023-12-07T12:56:29;43.78;;;16.85;;
84082;SDS011;74174;52.224;6.878;2023-12-07T12:58:54;46.38;;;17.65;;
84082;SDS011;74174;52.224;6.878;2023-12-07T13:01:21;42.72;;;18.42;;
84082;SDS011;74174;52.224;6.878;2023-12-07T13:03:47;46.85;;;18.63;;
84082;SDS011;74174;52.224;6.878;2023-12-07T13:06:13;43.88;;;17.58;;
84082;SDS011;74174;52.224;6.878;2023-12-07T13:08:49;42.78;;;17.10;;
84082;SDS011;74174;52.224;6.878;2023-12-07T13:11:18;46.65;;;18.45;;
84082;SDS011;74174;52.224;6.878;2023-12-07T13:13:45;44.50;;;17.65;;
84082;SDS011;74174;52.224;6.878;2023-12-07T13:16:16;44.63;;;17.40;;
84082;SDS011;74174;52.224;6.878;2023-12-07T13:18:41;49.22;;;18.23;;
84082;SDS011;74174;52.224;6.878;2023-12-07T13:21:09;41.85;;;15.68;;
84082;SDS011;74174;52.224;6.878;2023-12-07T13:23:35;47.15;;;16.95;;
84082;SDS011;74174;52.224;6.878;2023-12-07T13:26:02;45.60;;;17.20;;
84082;SDS011;74174;52.224;6.878;2023-12-07T13:28:27;43.75;;;17.60;;
84082;SDS011;74174;52.224;6.878;2023-12-07T13:30:53;45.55;;;17.85;;
84082;SDS011;74174;52.224;6.878;2023-12-07T13:33:19;44.65;;;18.13;;
84082;SDS011;74174;52.224;6.878;2023-12-07T13:35:44;45.92;;;17.73;;
84082;SDS011;74174;52.224;6.878;2023-12-07T13:38:10;53.92;;;19.83;;
84082;SDS011;74174;52.224;6.878;2023-12-07T13:40:36;45.80;;;19.00;;
84082;SDS011;74174;52.224;6.878;2023-12-07T13:43:02;47.05;;;18.23;;
84082;SDS011;74174;52.224;6.878;2023-12-07T13:45:28;48.08;;;18.15;;
84082;SDS011;74174;52.224;6.878;2023-12-07T13:47:55;46.47;;;19.27;;
84082;SDS011;74174;52.224;6.878;2023-12-07T13:50:20;52.97;;;19.25;;
84082;SDS011;74174;52.224;6.878;2023-12-07T13:52:47;47.30;;;18.35;;
84082;SDS011;74174;52.224;6.878;2023-12-07T13:55:13;48.42;;;18.00;;
84082;SDS011;74174;52.224;6.878;2023-12-07T13:57:38;49.38;;;17.90;;
84082;SDS011;74174;52.224;6.878;2023-12-07T14:00:04;45.42;;;18.60;;
84082;SDS011;74174;52.224;6.878;2023-12-07T14:02:30;48.80;;;18.67;;
84082;SDS011;74174;52.224;6.878;2023-12-07T14:04:59;45.50;;;19.30;;
84082;SDS011;74174;52.224;6.878;2023-12-07T14:07:24;55.30;;;20.88;;
84082;SDS011;74174;52.224;6.878;2023-12-07T14:09:51;59.35;;;24.65;;
84082;SDS011;74174;52.224;6.878;2023-12-07T14:12:19;50.42;;;21.30;;
84082;SDS011;74174;52.224;6.878;2023-12-07T14:14:45;49.55;;;21.13;;
84082;SDS011;74174;52.224;6.878;2023-12-07T14:17:12;46.55;;;17.90;;
84082;SDS011;74174;52.224;6.878;2023-12-07T14:19:38;46.28;;;19.58;;
84082;SDS011;74174;52.224;6.878;2023-12-07T14:22:04;55.45;;;21.48;;
84082;SDS011;74174;52.224;6.878;2023-12-07T14:24:30;51.10;;;20.48;;
84082;SDS011;74174;52.224;6.878;2023-12-07T14:27:01;53.58;;;20.05;;
84082;SDS011;74174;52.224;6.878;2023-12-07T14:29:28;47.45;;;18.58;;
84082;SDS011;74174;52.224;6.878;2023-12-07T14:31:54;50.00;;;19.20;;
84082;SDS011;74174;52.224;6.878;2023-12-07T14:34:22;46.78;;;18.02;;